sensor_id;sensor_type;location;lat;lon;timestamp;temperature;humidity
62912;DHT22;49111;51.028;4.218;2023-03-25T00:00:56;10.90;99.90
62912;DHT22;49111;51.028;4.218;2023-03-25T00:03:24;10.80;99.90
62912;DHT22;49111;51.028;4.218;2023-03-25T00:05:52;10.80;99.90
62912;DHT22;49111;51.028;4.218;2023-03-25T00:08:18;10.70;99.90
62912;DHT22;49111;51.028;4.218;2023-03-25T00:10:44;10.70;99.90
62912;DHT22;49111;51.028;4.218;2023-03-25T00:13:09;10.60;99.90
62912;DHT22;49111;51.028;4.218;2023-03-25T00:15:42;10.60;99.90
62912;DHT22;49111;51.028;4.218;2023-03-25T00:18:10;10.60;99.90
62912;DHT22;49111;51.028;4.218;2023-03-25T00:20:36;10.50;99.90
62912;DHT22;49111;51.028;4.218;2023-03-25T00:23:06;10.50;99.90
62912;DHT22;49111;51.028;4.218;2023-03-25T00:25:31;10.40;99.90
62912;DHT22;49111;51.028;4.218;2023-03-25T00:27:58;10.40;99.90
62912;DHT22;49111;51.028;4.218;2023-03-25T00:30:24;10.30;99.90
62912;DHT22;49111;51.028;4.218;2023-03-25T00:32:50;10.40;99.90
62912;DHT22;49111;51.028;4.218;2023-03-25T00:35:21;10.40;99.90
62912;DHT22;49111;51.028;4.218;2023-03-25T00:37:48;10.40;99.90
62912;DHT22;49111;51.028;4.218;2023-03-25T00:40:22;10.40;99.90
62912;DHT22;49111;51.028;4.218;2023-03-25T00:42:48;10.30;99.90
62912;DHT22;49111;51.028;4.218;2023-03-25T00:45:17;10.30;99.90
62912;DHT22;49111;51.028;4.218;2023-03-25T00:47:43;10.30;99.90
62912;DHT22;49111;51.028;4.218;2023-03-25T00:50:09;10.20;99.90
62912;DHT22;49111;51.028;4.218;2023-03-25T00:52:35;10.20;99.90
62912;DHT22;49111;51.028;4.218;2023-03-25T00:55:02;10.30;99.90
62912;DHT22;49111;51.028;4.218;2023-03-25T00:57:29;10.30;99.90
62912;DHT22;49111;51.028;4.218;2023-03-25T00:59:55;10.20;99.90
62912;DHT22;49111;51.028;4.218;2023-03-25T01:02:22;10.30;99.90
62912;DHT22;49111;51.028;4.218;2023-03-25T01:04:48;10.30;99.90
62912;DHT22;49111;51.028;4.218;2023-03-25T01:07:15;10.30;99.90
62912;DHT22;49111;51.028;4.218;2023-03-25T01:09:41;10.30;99.90
62912;DHT22;49111;51.028;4.218;2023-03-25T01:12:07;10.30;99.90
62912;DHT22;49111;51.028;4.218;2023-03-25T01:14:33;10.30;99.90
62912;DHT22;49111;51.028;4.218;2023-03-25T01:16:59;10.20;99.90
62912;DHT22;49111;51.028;4.218;2023-03-25T01:19:28;10.20;99.90
62912;DHT22;49111;51.028;4.218;2023-03-25T01:21:54;10.20;99.90
62912;DHT22;49111;51.028;4.218;2023-03-25T01:24:20;10.10;99.90
62912;DHT22;49111;51.028;4.218;2023-03-25T01:26:46;10.20;99.90
62912;DHT22;49111;51.028;4.218;2023-03-25T01:29:13;10.20;99.90
62912;DHT22;49111;51.028;4.218;2023-03-25T01:31:39;10.10;99.90
62912;DHT22;49111;51.028;4.218;2023-03-25T01:34:06;10.20;99.90
62912;DHT22;49111;51.028;4.218;2023-03-25T01:36:33;10.20;99.90
62912;DHT22;49111;51.028;4.218;2023-03-25T01:39:00;10.20;99.90
62912;DHT22;49111;51.028;4.218;2023-03-25T01:41:28;10.20;99.90
62912;DHT22;49111;51.028;4.218;2023-03-25T01:46:59;10.20;99.90
62912;DHT22;49111;51.028;4.218;2023-03-25T01:49:32;10.20;99.90
62912;DHT22;49111;51.028;4.218;2023-03-25T01:52:25;10.20;99.90
62912;DHT22;49111;51.028;4.218;2023-03-25T01:54:53;10.20;99.90
62912;DHT22;49111;51.028;4.218;2023-03-25T01:57:22;10.10;99.90
62912;DHT22;49111;51.028;4.218;2023-03-25T01:59:52;10.10;99.90
62912;DHT22;49111;51.028;4.218;2023-03-25T02:02:19;10.10;99.90
62912;DHT22;49111;51.028;4.218;2023-03-25T02:05:00;10.20;99.90
62912;DHT22;49111;51.028;4.218;2023-03-25T02:07:34;10.20;99.90
62912;DHT22;49111;51.028;4.218;2023-03-25T02:10:04;10.20;99.90
62912;DHT22;49111;51.028;4.218;2023-03-25T02:12:31;10.20;99.90
62912;DHT22;49111;51.028;4.218;2023-03-25T02:14:58;10.20;99.90
62912;DHT22;49111;51.028;4.218;2023-03-25T02:22:53;10.20;99.90
62912;DHT22;49111;51.028;4.218;2023-03-25T02:38:44;10.30;99.90
62912;DHT22;49111;51.028;4.218;2023-03-25T02:41:33;10.30;99.90
62912;DHT22;49111;51.028;4.218;2023-03-25T02:44:12;10.30;99.90
62912;DHT22;49111;51.028;4.218;2023-03-25T02:46:48;10.20;99.90
62912;DHT22;49111;51.028;4.218;2023-03-25T02:49:32;10.20;99.90
62912;DHT22;49111;51.028;4.218;2023-03-25T02:52:29;10.10;99.90
62912;DHT22;49111;51.028;4.218;2023-03-25T02:54:59;10.10;99.90
62912;DHT22;49111;51.028;4.218;2023-03-25T02:57:31;10.00;99.90
62912;DHT22;49111;51.028;4.218;2023-03-25T02:59:59;9.90;99.90
62912;DHT22;49111;51.028;4.218;2023-03-25T03:02:29;9.90;99.90
62912;DHT22;49111;51.028;4.218;2023-03-25T03:04:57;10.00;99.90
62912;DHT22;49111;51.028;4.218;2023-03-25T03:07:29;9.90;99.90
62912;DHT22;49111;51.028;4.218;2023-03-25T03:10:22;9.80;99.90
62912;DHT22;49111;51.028;4.218;2023-03-25T03:13:37;9.70;99.90
62912;DHT22;49111;51.028;4.218;2023-03-25T03:18:43;9.70;99.90
62912;DHT22;49111;51.028;4.218;2023-03-25T03:21:32;9.80;99.90
62912;DHT22;49111;51.028;4.218;2023-03-25T03:24:35;9.80;99.90
62912;DHT22;49111;51.028;4.218;2023-03-25T03:27:16;9.90;99.90
62912;DHT22;49111;51.028;4.218;2023-03-25T03:30:36;9.90;99.90
62912;DHT22;49111;51.028;4.218;2023-03-25T03:32:53;9.80;99.90
62912;DHT22;49111;51.028;4.218;2023-03-25T03:35:28;9.70;99.90
62912;DHT22;49111;51.028;4.218;2023-03-25T03:38:05;9.60;99.90
62912;DHT22;49111;51.028;4.218;2023-03-25T03:40:35;9.70;99.90
62912;DHT22;49111;51.028;4.218;2023-03-25T03:43:06;9.70;99.90
62912;DHT22;49111;51.028;4.218;2023-03-25T03:45:40;9.70;99.90
62912;DHT22;49111;51.028;4.218;2023-03-25T03:48:16;9.70;99.90
62912;DHT22;49111;51.028;4.218;2023-03-25T03:50:54;9.70;99.90
62912;DHT22;49111;51.028;4.218;2023-03-25T03:53:51;9.50;99.90
62912;DHT22;49111;51.028;4.218;2023-03-25T03:56:23;9.60;99.90
62912;DHT22;49111;51.028;4.218;2023-03-25T03:58:53;9.60;99.90
62912;DHT22;49111;51.028;4.218;2023-03-25T04:01:34;9.80;99.90
62912;DHT22;49111;51.028;4.218;2023-03-25T04:04:13;9.70;99.90
62912;DHT22;49111;51.028;4.218;2023-03-25T04:06:43;9.80;99.90
62912;DHT22;49111;51.028;4.218;2023-03-25T04:12:30;9.80;99.90
62912;DHT22;49111;51.028;4.218;2023-03-25T04:15:00;9.80;99.90
62912;DHT22;49111;51.028;4.218;2023-03-25T04:17:27;9.80;99.90
62912;DHT22;49111;51.028;4.218;2023-03-25T04:19:58;9.80;99.90
62912;DHT22;49111;51.028;4.218;2023-03-25T04:22:24;9.80;99.90
62912;DHT22;49111;51.028;4.218;2023-03-25T04:24:50;9.80;99.90
62912;DHT22;49111;51.028;4.218;2023-03-25T04:27:19;9.70;99.90
62912;DHT22;49111;51.028;4.218;2023-03-25T04:29:48;9.70;99.90
62912;DHT22;49111;51.028;4.218;2023-03-25T04:32:16;9.70;99.90
62912;DHT22;49111;51.028;4.218;2023-03-25T04:34:42;9.70;99.90
62912;DHT22;49111;51.028;4.218;2023-03-25T04:37:08;9.70;99.90
62912;DHT22;49111;51.028;4.218;2023-03-25T04:39:34;9.80;99.90
62912;DHT22;49111;51.028;4.218;2023-03-25T04:41:59;9.80;99.90
62912;DHT22;49111;51.028;4.218;2023-03-25T04:44:29;9.80;99.90
62912;DHT22;49111;51.028;4.218;2023-03-25T04:46:58;9.80;99.90
62912;DHT22;49111;51.028;4.218;2023-03-25T04:49:25;9.80;99.90
62912;DHT22;49111;51.028;4.218;2023-03-25T04:51:52;9.90;99.90
62912;DHT22;49111;51.028;4.218;2023-03-25T04:54:20;9.80;99.90
62912;DHT22;49111;51.028;4.218;2023-03-25T04:56:46;9.70;99.90
62912;DHT22;49111;51.028;4.218;2023-03-25T04:59:14;9.70;99.90
62912;DHT22;49111;51.028;4.218;2023-03-25T05:01:41;9.60;99.90
62912;DHT22;49111;51.028;4.218;2023-03-25T05:04:08;9.70;99.90
62912;DHT22;49111;51.028;4.218;2023-03-25T05:06:41;9.70;99.90
62912;DHT22;49111;51.028;4.218;2023-03-25T05:09:10;9.70;99.90
62912;DHT22;49111;51.028;4.218;2023-03-25T05:11:37;9.80;99.90
62912;DHT22;49111;51.028;4.218;2023-03-25T05:14:05;9.80;99.90
62912;DHT22;49111;51.028;4.218;2023-03-25T05:16:31;9.80;99.90
62912;DHT22;49111;51.028;4.218;2023-03-25T05:18:57;9.80;99.90
62912;DHT22;49111;51.028;4.218;2023-03-25T05:21:23;9.70;99.90
62912;DHT22;49111;51.028;4.218;2023-03-25T05:23:49;9.70;99.90
62912;DHT22;49111;51.028;4.218;2023-03-25T05:26:16;9.60;99.90
62912;DHT22;49111;51.028;4.218;2023-03-25T05:28:41;9.60;99.90
62912;DHT22;49111;51.028;4.218;2023-03-25T05:31:07;9.60;99.90
62912;DHT22;49111;51.028;4.218;2023-03-25T05:33:34;9.60;99.90
62912;DHT22;49111;51.028;4.218;2023-03-25T05:36:03;9.70;99.90
62912;DHT22;49111;51.028;4.218;2023-03-25T05:38:29;9.60;99.90
62912;DHT22;49111;51.028;4.218;2023-03-25T05:40:54;9.50;99.90
62912;DHT22;49111;51.028;4.218;2023-03-25T05:43:21;9.50;99.90
62912;DHT22;49111;51.028;4.218;2023-03-25T05:45:47;9.50;99.90
62912;DHT22;49111;51.028;4.218;2023-03-25T05:48:13;9.40;99.90
62912;DHT22;49111;51.028;4.218;2023-03-25T05:50:39;9.40;99.90
62912;DHT22;49111;51.028;4.218;2023-03-25T05:53:10;9.40;99.90
62912;DHT22;49111;51.028;4.218;2023-03-25T05:55:37;9.30;99.90
62912;DHT22;49111;51.028;4.218;2023-03-25T05:58:03;9.40;99.90
62912;DHT22;49111;51.028;4.218;2023-03-25T06:00:29;9.30;99.90
62912;DHT22;49111;51.028;4.218;2023-03-25T06:02:55;9.40;99.90
62912;DHT22;49111;51.028;4.218;2023-03-25T06:05:24;9.50;99.90
62912;DHT22;49111;51.028;4.218;2023-03-25T06:07:51;9.50;99.90
62912;DHT22;49111;51.028;4.218;2023-03-25T06:10:21;9.60;99.90
62912;DHT22;49111;51.028;4.218;2023-03-25T06:12:47;9.60;99.90
62912;DHT22;49111;51.028;4.218;2023-03-25T06:15:16;9.60;99.90
62912;DHT22;49111;51.028;4.218;2023-03-25T06:17:43;9.70;99.90
62912;DHT22;49111;51.028;4.218;2023-03-25T06:20:13;9.70;99.90
62912;DHT22;49111;51.028;4.218;2023-03-25T06:22:44;9.80;99.90
62912;DHT22;49111;51.028;4.218;2023-03-25T06:25:15;9.80;99.90
62912;DHT22;49111;51.028;4.218;2023-03-25T06:27:42;9.90;99.90
62912;DHT22;49111;51.028;4.218;2023-03-25T06:30:11;10.00;99.90
62912;DHT22;49111;51.028;4.218;2023-03-25T06:32:38;10.00;99.90
62912;DHT22;49111;51.028;4.218;2023-03-25T06:35:04;10.00;99.90
62912;DHT22;49111;51.028;4.218;2023-03-25T06:37:30;10.10;99.90
62912;DHT22;49111;51.028;4.218;2023-03-25T06:39:58;10.00;99.90
62912;DHT22;49111;51.028;4.218;2023-03-25T06:42:26;10.00;99.90
62912;DHT22;49111;51.028;4.218;2023-03-25T06:45:17;9.90;99.90
62912;DHT22;49111;51.028;4.218;2023-03-25T06:47:55;10.00;99.90
62912;DHT22;49111;51.028;4.218;2023-03-25T06:50:20;10.10;99.90
62912;DHT22;49111;51.028;4.218;2023-03-25T06:52:46;10.00;99.90
62912;DHT22;49111;51.028;4.218;2023-03-25T06:55:12;10.10;99.90
62912;DHT22;49111;51.028;4.218;2023-03-25T06:57:37;10.20;99.90
62912;DHT22;49111;51.028;4.218;2023-03-25T07:00:04;10.30;99.90
62912;DHT22;49111;51.028;4.218;2023-03-25T07:02:30;10.40;99.90
62912;DHT22;49111;51.028;4.218;2023-03-25T07:04:56;10.40;99.90
62912;DHT22;49111;51.028;4.218;2023-03-25T07:07:23;10.50;99.90
62912;DHT22;49111;51.028;4.218;2023-03-25T07:09:52;10.50;99.90
62912;DHT22;49111;51.028;4.218;2023-03-25T07:12:20;10.50;99.90
62912;DHT22;49111;51.028;4.218;2023-03-25T07:14:53;10.70;99.90
62912;DHT22;49111;51.028;4.218;2023-03-25T07:17:19;10.70;99.90
62912;DHT22;49111;51.028;4.218;2023-03-25T07:19:45;10.70;99.90
62912;DHT22;49111;51.028;4.218;2023-03-25T07:22:11;10.70;99.90
62912;DHT22;49111;51.028;4.218;2023-03-25T07:24:37;10.80;99.90
62912;DHT22;49111;51.028;4.218;2023-03-25T07:27:03;10.90;99.90
62912;DHT22;49111;51.028;4.218;2023-03-25T07:29:30;10.80;99.90
62912;DHT22;49111;51.028;4.218;2023-03-25T07:31:56;10.90;99.90
62912;DHT22;49111;51.028;4.218;2023-03-25T07:34:21;10.90;99.90
62912;DHT22;49111;51.028;4.218;2023-03-25T07:36:47;11.00;99.90
62912;DHT22;49111;51.028;4.218;2023-03-25T07:39:13;11.00;99.90
62912;DHT22;49111;51.028;4.218;2023-03-25T07:41:39;11.00;99.90
62912;DHT22;49111;51.028;4.218;2023-03-25T07:44:19;10.90;99.90
62912;DHT22;49111;51.028;4.218;2023-03-25T07:46:48;11.00;99.90
62912;DHT22;49111;51.028;4.218;2023-03-25T07:49:15;11.10;99.90
62912;DHT22;49111;51.028;4.218;2023-03-25T07:51:42;11.10;99.90
62912;DHT22;49111;51.028;4.218;2023-03-25T07:54:08;11.10;99.90
62912;DHT22;49111;51.028;4.218;2023-03-25T07:56:34;11.20;99.90
62912;DHT22;49111;51.028;4.218;2023-03-25T07:59:01;11.20;99.90
62912;DHT22;49111;51.028;4.218;2023-03-25T08:01:26;11.20;99.90
62912;DHT22;49111;51.028;4.218;2023-03-25T08:03:52;11.20;99.90
62912;DHT22;49111;51.028;4.218;2023-03-25T08:06:18;11.20;99.90
62912;DHT22;49111;51.028;4.218;2023-03-25T08:08:44;11.30;99.90
62912;DHT22;49111;51.028;4.218;2023-03-25T08:11:09;11.30;99.90
62912;DHT22;49111;51.028;4.218;2023-03-25T08:13:35;11.30;99.90
62912;DHT22;49111;51.028;4.218;2023-03-25T08:16:01;11.40;99.90
62912;DHT22;49111;51.028;4.218;2023-03-25T08:18:27;11.50;99.90
62912;DHT22;49111;51.028;4.218;2023-03-25T08:20:53;11.70;99.90
62912;DHT22;49111;51.028;4.218;2023-03-25T08:23:19;11.80;99.90
62912;DHT22;49111;51.028;4.218;2023-03-25T08:25:48;11.90;99.90
62912;DHT22;49111;51.028;4.218;2023-03-25T08:28:16;11.80;99.90
62912;DHT22;49111;51.028;4.218;2023-03-25T08:30:43;11.80;99.90
62912;DHT22;49111;51.028;4.218;2023-03-25T08:33:10;11.70;99.90
62912;DHT22;49111;51.028;4.218;2023-03-25T08:35:37;11.70;99.90
62912;DHT22;49111;51.028;4.218;2023-03-25T08:38:03;11.90;99.90
62912;DHT22;49111;51.028;4.218;2023-03-25T08:40:34;12.00;99.90
62912;DHT22;49111;51.028;4.218;2023-03-25T08:43:02;12.00;99.90
62912;DHT22;49111;51.028;4.218;2023-03-25T08:45:28;12.10;99.90
62912;DHT22;49111;51.028;4.218;2023-03-25T08:47:54;12.10;99.90
62912;DHT22;49111;51.028;4.218;2023-03-25T08:50:20;12.20;99.90
62912;DHT22;49111;51.028;4.218;2023-03-25T08:52:45;12.30;99.90
62912;DHT22;49111;51.028;4.218;2023-03-25T08:55:11;12.40;99.90
62912;DHT22;49111;51.028;4.218;2023-03-25T08:57:41;12.50;99.90
62912;DHT22;49111;51.028;4.218;2023-03-25T09:00:07;12.50;99.90
62912;DHT22;49111;51.028;4.218;2023-03-25T09:02:40;12.40;99.90
62912;DHT22;49111;51.028;4.218;2023-03-25T09:05:08;12.30;99.90
62912;DHT22;49111;51.028;4.218;2023-03-25T09:07:36;12.40;99.90
62912;DHT22;49111;51.028;4.218;2023-03-25T09:10:03;12.50;99.90
62912;DHT22;49111;51.028;4.218;2023-03-25T09:12:29;12.50;99.90
62912;DHT22;49111;51.028;4.218;2023-03-25T09:14:55;12.50;99.90
62912;DHT22;49111;51.028;4.218;2023-03-25T09:17:21;12.40;99.90
62912;DHT22;49111;51.028;4.218;2023-03-25T09:19:47;12.30;99.90
62912;DHT22;49111;51.028;4.218;2023-03-25T09:22:13;12.20;99.90
62912;DHT22;49111;51.028;4.218;2023-03-25T09:24:40;12.30;99.90
62912;DHT22;49111;51.028;4.218;2023-03-25T09:27:06;12.40;99.90
62912;DHT22;49111;51.028;4.218;2023-03-25T09:29:32;12.60;99.90
62912;DHT22;49111;51.028;4.218;2023-03-25T09:31:58;12.70;99.90
62912;DHT22;49111;51.028;4.218;2023-03-25T09:34:24;12.90;99.90
62912;DHT22;49111;51.028;4.218;2023-03-25T09:36:52;13.00;99.90
62912;DHT22;49111;51.028;4.218;2023-03-25T09:39:18;13.10;99.90
62912;DHT22;49111;51.028;4.218;2023-03-25T09:47:23;13.00;99.90
62912;DHT22;49111;51.028;4.218;2023-03-25T09:49:54;12.70;99.90
62912;DHT22;49111;51.028;4.218;2023-03-25T09:52:35;12.20;99.90
62912;DHT22;49111;51.028;4.218;2023-03-25T09:55:08;11.80;99.90
62912;DHT22;49111;51.028;4.218;2023-03-25T09:57:44;11.30;99.90
62912;DHT22;49111;51.028;4.218;2023-03-25T10:00:19;11.00;99.90
62912;DHT22;49111;51.028;4.218;2023-03-25T10:03:02;10.90;99.90
62912;DHT22;49111;51.028;4.218;2023-03-25T10:05:47;10.70;99.90
62912;DHT22;49111;51.028;4.218;2023-03-25T10:08:33;10.80;99.90
62912;DHT22;49111;51.028;4.218;2023-03-25T10:14:05;11.30;99.90
62912;DHT22;49111;51.028;4.218;2023-03-25T10:22:11;12.40;99.90
62912;DHT22;49111;51.028;4.218;2023-03-25T10:24:59;12.60;99.90
62912;DHT22;49111;51.028;4.218;2023-03-25T10:30:19;13.00;99.90
62912;DHT22;49111;51.028;4.218;2023-03-25T10:32:55;13.20;99.90
62912;DHT22;49111;51.028;4.218;2023-03-25T10:35:30;13.30;99.90
62912;DHT22;49111;51.028;4.218;2023-03-25T10:38:06;13.50;99.90
62912;DHT22;49111;51.028;4.218;2023-03-25T10:40:41;13.60;99.90
62912;DHT22;49111;51.028;4.218;2023-03-25T10:43:33;13.60;99.90
62912;DHT22;49111;51.028;4.218;2023-03-25T10:48:41;13.80;99.90
62912;DHT22;49111;51.028;4.218;2023-03-25T10:51:10;13.90;99.90
62912;DHT22;49111;51.028;4.218;2023-03-25T10:53:36;14.10;99.90
62912;DHT22;49111;51.028;4.218;2023-03-25T10:56:08;14.10;99.90
62912;DHT22;49111;51.028;4.218;2023-03-25T10:58:38;14.20;99.90
62912;DHT22;49111;51.028;4.218;2023-03-25T11:01:14;14.10;99.90
62912;DHT22;49111;51.028;4.218;2023-03-25T11:03:41;14.10;99.90
62912;DHT22;49111;51.028;4.218;2023-03-25T11:06:29;14.10;99.90
62912;DHT22;49111;51.028;4.218;2023-03-25T11:11:31;13.90;99.90
62912;DHT22;49111;51.028;4.218;2023-03-25T11:13:57;13.60;99.90
62912;DHT22;49111;51.028;4.218;2023-03-25T11:16:23;13.30;99.90
62912;DHT22;49111;51.028;4.218;2023-03-25T11:18:50;13.00;99.90
62912;DHT22;49111;51.028;4.218;2023-03-25T11:21:17;12.80;99.90
62912;DHT22;49111;51.028;4.218;2023-03-25T11:23:46;12.40;99.90
62912;DHT22;49111;51.028;4.218;2023-03-25T11:26:21;12.40;99.90
62912;DHT22;49111;51.028;4.218;2023-03-25T11:28:54;12.60;99.90
62912;DHT22;49111;51.028;4.218;2023-03-25T11:31:22;12.60;99.90
62912;DHT22;49111;51.028;4.218;2023-03-25T11:36:34;12.90;99.90
62912;DHT22;49111;51.028;4.218;2023-03-25T11:39:15;13.20;99.90
62912;DHT22;49111;51.028;4.218;2023-03-25T11:41:45;13.40;99.90
62912;DHT22;49111;51.028;4.218;2023-03-25T11:44:29;13.40;99.90
62912;DHT22;49111;51.028;4.218;2023-03-25T11:46:59;13.50;99.90
62912;DHT22;49111;51.028;4.218;2023-03-25T11:49:26;13.50;99.90
62912;DHT22;49111;51.028;4.218;2023-03-25T11:54:47;13.70;99.90
62912;DHT22;49111;51.028;4.218;2023-03-25T11:57:17;13.90;99.90
62912;DHT22;49111;51.028;4.218;2023-03-25T11:59:49;14.00;99.90
62912;DHT22;49111;51.028;4.218;2023-03-25T12:02:29;14.00;99.90
62912;DHT22;49111;51.028;4.218;2023-03-25T12:05:02;13.90;99.90
62912;DHT22;49111;51.028;4.218;2023-03-25T12:07:28;13.80;99.90
62912;DHT22;49111;51.028;4.218;2023-03-25T12:09:56;13.70;99.90
62912;DHT22;49111;51.028;4.218;2023-03-25T12:12:45;13.60;99.90
62912;DHT22;49111;51.028;4.218;2023-03-25T12:15:28;13.60;99.90
62912;DHT22;49111;51.028;4.218;2023-03-25T12:23:30;13.40;99.90
62912;DHT22;49111;51.028;4.218;2023-03-25T12:26:40;13.30;99.90
62912;DHT22;49111;51.028;4.218;2023-03-25T12:49:47;13.40;99.90
62912;DHT22;49111;51.028;4.218;2023-03-25T12:56:59;12.60;99.90
62912;DHT22;49111;51.028;4.218;2023-03-25T12:59:47;12.20;99.90
62912;DHT22;49111;51.028;4.218;2023-03-25T13:07:19;12.00;99.90
62912;DHT22;49111;51.028;4.218;2023-03-25T13:10:27;11.70;99.90
62912;DHT22;49111;51.028;4.218;2023-03-25T13:12:54;11.60;99.90
62912;DHT22;49111;51.028;4.218;2023-03-25T13:19:41;11.80;99.90
62912;DHT22;49111;51.028;4.218;2023-03-25T13:22:23;12.00;99.90
62912;DHT22;49111;51.028;4.218;2023-03-25T13:24:56;12.10;99.90
62912;DHT22;49111;51.028;4.218;2023-03-25T13:27:25;12.20;99.90
62912;DHT22;49111;51.028;4.218;2023-03-25T13:29:58;12.10;99.90
62912;DHT22;49111;51.028;4.218;2023-03-25T13:32:28;12.00;99.90
62912;DHT22;49111;51.028;4.218;2023-03-25T13:35:27;11.80;99.90
62912;DHT22;49111;51.028;4.218;2023-03-25T13:41:49;12.10;99.90
62912;DHT22;49111;51.028;4.218;2023-03-25T13:44:19;12.30;99.90
62912;DHT22;49111;51.028;4.218;2023-03-25T13:47:12;12.40;99.90
62912;DHT22;49111;51.028;4.218;2023-03-25T13:49:46;12.40;99.90
62912;DHT22;49111;51.028;4.218;2023-03-25T13:52:38;12.50;99.90
62912;DHT22;49111;51.028;4.218;2023-03-25T13:55:19;12.70;99.90
62912;DHT22;49111;51.028;4.218;2023-03-25T14:00:29;12.60;99.90
62912;DHT22;49111;51.028;4.218;2023-03-25T14:06:03;12.50;99.90
62912;DHT22;49111;51.028;4.218;2023-03-25T14:11:41;12.60;99.90
62912;DHT22;49111;51.028;4.218;2023-03-25T14:14:11;12.70;99.90
62912;DHT22;49111;51.028;4.218;2023-03-25T14:16:44;12.60;99.90
62912;DHT22;49111;51.028;4.218;2023-03-25T14:19:16;12.70;99.90
62912;DHT22;49111;51.028;4.218;2023-03-25T14:21:47;12.80;99.90
62912;DHT22;49111;51.028;4.218;2023-03-25T14:26:52;12.80;99.90
62912;DHT22;49111;51.028;4.218;2023-03-25T14:29:41;12.50;99.90
62912;DHT22;49111;51.028;4.218;2023-03-25T14:34:34;12.50;99.90
62912;DHT22;49111;51.028;4.218;2023-03-25T14:37:08;12.50;99.90
62912;DHT22;49111;51.028;4.218;2023-03-25T14:39:38;12.60;99.90
62912;DHT22;49111;51.028;4.218;2023-03-25T14:44:43;13.10;99.90
62912;DHT22;49111;51.028;4.218;2023-03-25T14:52:56;13.50;99.90
62912;DHT22;49111;51.028;4.218;2023-03-25T14:55:30;13.50;99.90
62912;DHT22;49111;51.028;4.218;2023-03-25T14:58:05;13.50;99.90
62912;DHT22;49111;51.028;4.218;2023-03-25T15:00:41;13.60;99.90
62912;DHT22;49111;51.028;4.218;2023-03-25T15:03:13;13.60;99.90
62912;DHT22;49111;51.028;4.218;2023-03-25T15:05:44;13.70;99.90
62912;DHT22;49111;51.028;4.218;2023-03-25T15:08:33;13.80;99.90
62912;DHT22;49111;51.028;4.218;2023-03-25T15:11:08;13.80;99.90
62912;DHT22;49111;51.028;4.218;2023-03-25T15:13:45;13.70;99.90
62912;DHT22;49111;51.028;4.218;2023-03-25T15:19:18;13.50;99.90
62912;DHT22;49111;51.028;4.218;2023-03-25T15:24:30;13.70;99.90
62912;DHT22;49111;51.028;4.218;2023-03-25T15:26:59;13.80;99.90
62912;DHT22;49111;51.028;4.218;2023-03-25T15:29:53;13.80;99.90
62912;DHT22;49111;51.028;4.218;2023-03-25T15:43:45;14.10;99.90
62912;DHT22;49111;51.028;4.218;2023-03-25T15:51:40;14.30;99.90
62912;DHT22;49111;51.028;4.218;2023-03-25T15:56:54;14.20;99.90
62912;DHT22;49111;51.028;4.218;2023-03-25T15:59:40;14.10;99.90
62912;DHT22;49111;51.028;4.218;2023-03-25T16:02:37;14.10;99.90
62912;DHT22;49111;51.028;4.218;2023-03-25T16:05:06;13.90;99.90
62912;DHT22;49111;51.028;4.218;2023-03-25T16:07:33;13.70;99.90
62912;DHT22;49111;51.028;4.218;2023-03-25T16:10:18;13.70;99.90
62912;DHT22;49111;51.028;4.218;2023-03-25T16:12:47;13.60;99.90
62912;DHT22;49111;51.028;4.218;2023-03-25T16:15:20;13.70;99.90
62912;DHT22;49111;51.028;4.218;2023-03-25T16:17:47;13.70;99.90
62912;DHT22;49111;51.028;4.218;2023-03-25T16:20:17;13.70;99.90
62912;DHT22;49111;51.028;4.218;2023-03-25T16:22:48;13.90;99.90
62912;DHT22;49111;51.028;4.218;2023-03-25T16:25:21;13.90;99.90
62912;DHT22;49111;51.028;4.218;2023-03-25T16:27:55;14.00;99.90
62912;DHT22;49111;51.028;4.218;2023-03-25T16:30:31;14.00;99.90
62912;DHT22;49111;51.028;4.218;2023-03-25T16:35:38;13.80;99.90
62912;DHT22;49111;51.028;4.218;2023-03-25T16:38:05;13.70;99.90
62912;DHT22;49111;51.028;4.218;2023-03-25T16:40:39;13.40;99.90
62912;DHT22;49111;51.028;4.218;2023-03-25T16:43:07;13.40;99.90
62912;DHT22;49111;51.028;4.218;2023-03-25T16:45:36;13.40;99.90
62912;DHT22;49111;51.028;4.218;2023-03-25T16:48:06;13.30;99.90
62912;DHT22;49111;51.028;4.218;2023-03-25T16:50:35;13.30;99.90
62912;DHT22;49111;51.028;4.218;2023-03-25T16:53:01;13.30;99.90
62912;DHT22;49111;51.028;4.218;2023-03-25T16:55:30;13.40;99.90
62912;DHT22;49111;51.028;4.218;2023-03-25T16:57:59;13.40;99.90
62912;DHT22;49111;51.028;4.218;2023-03-25T17:00:36;13.30;99.90
62912;DHT22;49111;51.028;4.218;2023-03-25T17:03:02;13.20;99.90
62912;DHT22;49111;51.028;4.218;2023-03-25T17:05:30;13.20;99.90
62912;DHT22;49111;51.028;4.218;2023-03-25T17:08:01;13.10;99.90
62912;DHT22;49111;51.028;4.218;2023-03-25T17:10:43;13.00;99.90
62912;DHT22;49111;51.028;4.218;2023-03-25T17:13:26;13.10;99.90
62912;DHT22;49111;51.028;4.218;2023-03-25T17:15:52;13.10;99.90
62912;DHT22;49111;51.028;4.218;2023-03-25T17:18:19;13.20;99.90
62912;DHT22;49111;51.028;4.218;2023-03-25T17:20:48;13.10;99.90
62912;DHT22;49111;51.028;4.218;2023-03-25T17:23:24;13.00;99.90
62912;DHT22;49111;51.028;4.218;2023-03-25T17:25:55;13.00;99.90
62912;DHT22;49111;51.028;4.218;2023-03-25T17:28:24;13.00;99.90
62912;DHT22;49111;51.028;4.218;2023-03-25T17:30:51;12.90;99.90
62912;DHT22;49111;51.028;4.218;2023-03-25T17:33:34;12.90;99.90
62912;DHT22;49111;51.028;4.218;2023-03-25T17:36:08;12.70;99.90
62912;DHT22;49111;51.028;4.218;2023-03-25T17:38:39;12.80;99.90
62912;DHT22;49111;51.028;4.218;2023-03-25T17:41:08;12.70;99.90
62912;DHT22;49111;51.028;4.218;2023-03-25T17:43:40;12.70;99.90
62912;DHT22;49111;51.028;4.218;2023-03-25T17:46:06;12.70;99.90
62912;DHT22;49111;51.028;4.218;2023-03-25T17:48:33;12.70;99.90
62912;DHT22;49111;51.028;4.218;2023-03-25T17:50:59;12.80;99.90
62912;DHT22;49111;51.028;4.218;2023-03-25T17:53:26;12.80;99.90
62912;DHT22;49111;51.028;4.218;2023-03-25T17:55:52;12.80;99.90
62912;DHT22;49111;51.028;4.218;2023-03-25T17:58:20;12.70;99.90
62912;DHT22;49111;51.028;4.218;2023-03-25T18:00:46;12.70;99.90
62912;DHT22;49111;51.028;4.218;2023-03-25T18:03:16;12.60;99.90
62912;DHT22;49111;51.028;4.218;2023-03-25T18:05:43;12.60;99.90
62912;DHT22;49111;51.028;4.218;2023-03-25T18:08:12;12.50;99.90
62912;DHT22;49111;51.028;4.218;2023-03-25T18:10:39;12.40;99.90
62912;DHT22;49111;51.028;4.218;2023-03-25T18:13:06;12.50;99.90
62912;DHT22;49111;51.028;4.218;2023-03-25T18:15:32;12.50;99.90
62912;DHT22;49111;51.028;4.218;2023-03-25T18:17:57;12.40;99.90
62912;DHT22;49111;51.028;4.218;2023-03-25T18:20:28;12.40;99.90
62912;DHT22;49111;51.028;4.218;2023-03-25T18:22:54;12.40;99.90
62912;DHT22;49111;51.028;4.218;2023-03-25T18:25:20;12.30;99.90
62912;DHT22;49111;51.028;4.218;2023-03-25T18:27:53;12.40;99.90